Terminal Aerodrome Forecast
Issued by NWS

Current Version | Previous Version | Text Only | Print | Product List | Glossary On
Versions: 1 2 3 4 5 6 7 8 9 10 11 12 13 14 15 16 17 18
000
FTUS45 KRIW 222100 AAA
TAFBPI
TAF AMD
KBPI 222109Z 2221/2318 13012G22KT P6SM SCT040 BKN050
      TEMPO 2221/2223 -TSRA OVC030CB
     FM222300 14007KT P6SM VCTS SCT035 BKN060CB
     FM230300 VRB06KT 6SM -SHRA SCT020 BKN035
     FM231600 15005KT P6SM VCSH SCT030 BKN060=

USA.gov is the U.S. government's official web portal to all federal, state and local government web resources and services.